sensor_id;sensor_type;location;lat;lon;timestamp;P1;durP1;ratioP1;P2;durP2;ratioP2
73487;SDS011;61721;42.206;25.320;2024-03-02T00:00:51;21.88;;;10.43;;
73487;SDS011;61721;42.206;25.320;2024-03-02T00:03:19;22.95;;;10.50;;
73487;SDS011;61721;42.206;25.320;2024-03-02T00:05:50;26.33;;;10.82;;
73487;SDS011;61721;42.206;25.320;2024-03-02T00:08:21;22.65;;;10.15;;
73487;SDS011;61721;42.206;25.320;2024-03-02T00:10:50;23.52;;;11.10;;
73487;SDS011;61721;42.206;25.320;2024-03-02T00:13:20;19.98;;;10.77;;
73487;SDS011;61721;42.206;25.320;2024-03-02T00:15:53;20.73;;;9.75;;
73487;SDS011;61721;42.206;25.320;2024-03-02T00:18:23;22.38;;;11.50;;
73487;SDS011;61721;42.206;25.320;2024-03-02T00:20:53;26.02;;;10.60;;
73487;SDS011;61721;42.206;25.320;2024-03-02T00:23:22;19.27;;;10.70;;
73487;SDS011;61721;42.206;25.320;2024-03-02T00:25:50;23.13;;;10.25;;
73487;SDS011;61721;42.206;25.320;2024-03-02T00:28:20;19.83;;;9.50;;
73487;SDS011;61721;42.206;25.320;2024-03-02T00:30:56;17.75;;;9.55;;
73487;SDS011;61721;42.206;25.320;2024-03-02T00:33:26;18.38;;;9.50;;
73487;SDS011;61721;42.206;25.320;2024-03-02T00:35:56;16.92;;;9.25;;
73487;SDS011;61721;42.206;25.320;2024-03-02T00:38:25;19.45;;;9.98;;
73487;SDS011;61721;42.206;25.320;2024-03-02T00:40:53;17.25;;;9.23;;
73487;SDS011;61721;42.206;25.320;2024-03-02T00:46:11;18.38;;;9.13;;
73487;SDS011;61721;42.206;25.320;2024-03-02T00:51:12;20.85;;;8.48;;
73487;SDS011;61721;42.206;25.320;2024-03-02T00:53:40;17.80;;;9.20;;
73487;SDS011;61721;42.206;25.320;2024-03-02T00:56:09;18.92;;;9.38;;
73487;SDS011;61721;42.206;25.320;2024-03-02T00:58:44;17.50;;;8.88;;
73487;SDS011;61721;42.206;25.320;2024-03-02T01:01:13;23.95;;;9.85;;
73487;SDS011;61721;42.206;25.320;2024-03-02T01:03:41;25.00;;;10.50;;
73487;SDS011;61721;42.206;25.320;2024-03-02T01:06:09;21.60;;;9.75;;
73487;SDS011;61721;42.206;25.320;2024-03-02T01:08:36;22.40;;;10.15;;
73487;SDS011;61721;42.206;25.320;2024-03-02T01:11:04;21.35;;;9.25;;
73487;SDS011;61721;42.206;25.320;2024-03-02T01:13:31;26.05;;;11.30;;
73487;SDS011;61721;42.206;25.320;2024-03-02T01:15:59;19.23;;;8.82;;
73487;SDS011;61721;42.206;25.320;2024-03-02T01:18:29;20.67;;;9.95;;
73487;SDS011;61721;42.206;25.320;2024-03-02T01:20:57;20.63;;;9.40;;
73487;SDS011;61721;42.206;25.320;2024-03-02T01:23:24;22.65;;;10.45;;
73487;SDS011;61721;42.206;25.320;2024-03-02T01:25:52;26.65;;;10.43;;
73487;SDS011;61721;42.206;25.320;2024-03-02T01:28:20;22.65;;;10.48;;
73487;SDS011;61721;42.206;25.320;2024-03-02T01:30:47;21.50;;;10.38;;
73487;SDS011;61721;42.206;25.320;2024-03-02T01:33:15;24.23;;;11.07;;
73487;SDS011;61721;42.206;25.320;2024-03-02T01:35:44;27.50;;;10.88;;
73487;SDS011;61721;42.206;25.320;2024-03-02T01:38:12;24.75;;;11.18;;
73487;SDS011;61721;42.206;25.320;2024-03-02T01:40:40;28.27;;;10.55;;
73487;SDS011;61721;42.206;25.320;2024-03-02T01:43:09;23.38;;;10.50;;
73487;SDS011;61721;42.206;25.320;2024-03-02T01:45:37;26.88;;;10.65;;
73487;SDS011;61721;42.206;25.320;2024-03-02T01:48:05;21.95;;;9.90;;
73487;SDS011;61721;42.206;25.320;2024-03-02T01:50:33;19.10;;;9.95;;
73487;SDS011;61721;42.206;25.320;2024-03-02T01:53:03;19.05;;;9.38;;
73487;SDS011;61721;42.206;25.320;2024-03-02T01:55:31;14.55;;;8.20;;
73487;SDS011;61721;42.206;25.320;2024-03-02T01:58:00;19.58;;;9.27;;
73487;SDS011;61721;42.206;25.320;2024-03-02T02:00:28;19.92;;;8.75;;
73487;SDS011;61721;42.206;25.320;2024-03-02T02:02:55;15.98;;;9.00;;
73487;SDS011;61721;42.206;25.320;2024-03-02T02:05:23;16.08;;;8.25;;
73487;SDS011;61721;42.206;25.320;2024-03-02T02:07:50;20.08;;;8.80;;
73487;SDS011;61721;42.206;25.320;2024-03-02T02:10:19;21.20;;;9.13;;
73487;SDS011;61721;42.206;25.320;2024-03-02T02:12:47;23.60;;;9.25;;
73487;SDS011;61721;42.206;25.320;2024-03-02T02:15:24;20.70;;;9.80;;
73487;SDS011;61721;42.206;25.320;2024-03-02T02:17:52;17.15;;;9.25;;
73487;SDS011;61721;42.206;25.320;2024-03-02T02:20:19;24.95;;;9.02;;
73487;SDS011;61721;42.206;25.320;2024-03-02T02:22:56;17.65;;;9.57;;
73487;SDS011;61721;42.206;25.320;2024-03-02T02:25:24;21.55;;;9.30;;
73487;SDS011;61721;42.206;25.320;2024-03-02T02:27:51;26.42;;;10.30;;
73487;SDS011;61721;42.206;25.320;2024-03-02T02:30:21;25.80;;;11.52;;
73487;SDS011;61721;42.206;25.320;2024-03-02T02:32:49;26.27;;;12.93;;
73487;SDS011;61721;42.206;25.320;2024-03-02T02:35:16;31.52;;;13.82;;
73487;SDS011;61721;42.206;25.320;2024-03-02T02:37:44;32.78;;;14.43;;
73487;SDS011;61721;42.206;25.320;2024-03-02T02:40:14;26.55;;;11.82;;
73487;SDS011;61721;42.206;25.320;2024-03-02T02:42:42;22.15;;;9.68;;
73487;SDS011;61721;42.206;25.320;2024-03-02T02:45:09;22.55;;;10.55;;
73487;SDS011;61721;42.206;25.320;2024-03-02T02:47:39;19.67;;;9.18;;
73487;SDS011;61721;42.206;25.320;2024-03-02T02:50:07;22.60;;;9.80;;
73487;SDS011;61721;42.206;25.320;2024-03-02T02:52:35;19.65;;;8.90;;
73487;SDS011;61721;42.206;25.320;2024-03-02T02:55:05;21.10;;;9.00;;
73487;SDS011;61721;42.206;25.320;2024-03-02T02:57:35;22.67;;;10.07;;
73487;SDS011;61721;42.206;25.320;2024-03-02T03:00:05;18.65;;;9.00;;
73487;SDS011;61721;42.206;25.320;2024-03-02T03:02:36;20.75;;;9.77;;
73487;SDS011;61721;42.206;25.320;2024-03-02T03:05:11;19.20;;;9.95;;
73487;SDS011;61721;42.206;25.320;2024-03-02T03:07:39;22.25;;;9.15;;
73487;SDS011;61721;42.206;25.320;2024-03-02T03:10:07;18.52;;;7.97;;
73487;SDS011;61721;42.206;25.320;2024-03-02T03:12:36;23.55;;;9.57;;
73487;SDS011;61721;42.206;25.320;2024-03-02T03:15:06;17.45;;;9.13;;
73487;SDS011;61721;42.206;25.320;2024-03-02T03:17:35;19.58;;;8.02;;
73487;SDS011;61721;42.206;25.320;2024-03-02T03:20:03;17.40;;;8.40;;
73487;SDS011;61721;42.206;25.320;2024-03-02T03:22:34;18.42;;;9.00;;
73487;SDS011;61721;42.206;25.320;2024-03-02T03:25:02;20.40;;;8.48;;
73487;SDS011;61721;42.206;25.320;2024-03-02T03:27:30;19.33;;;8.77;;
73487;SDS011;61721;42.206;25.320;2024-03-02T03:30:00;18.33;;;8.73;;
73487;SDS011;61721;42.206;25.320;2024-03-02T03:34:54;18.17;;;7.10;;
73487;SDS011;61721;42.206;25.320;2024-03-02T03:37:22;17.20;;;8.50;;
73487;SDS011;61721;42.206;25.320;2024-03-02T03:39:51;16.73;;;7.60;;
73487;SDS011;61721;42.206;25.320;2024-03-02T03:42:18;19.95;;;7.78;;
73487;SDS011;61721;42.206;25.320;2024-03-02T03:44:45;18.50;;;7.97;;
73487;SDS011;61721;42.206;25.320;2024-03-02T03:47:14;21.05;;;7.85;;
73487;SDS011;61721;42.206;25.320;2024-03-02T03:49:42;22.27;;;9.27;;
73487;SDS011;61721;42.206;25.320;2024-03-02T03:52:09;20.00;;;8.85;;
73487;SDS011;61721;42.206;25.320;2024-03-02T03:54:36;16.65;;;8.20;;
73487;SDS011;61721;42.206;25.320;2024-03-02T03:57:04;20.27;;;8.27;;
73487;SDS011;61721;42.206;25.320;2024-03-02T03:59:31;14.02;;;7.85;;
73487;SDS011;61721;42.206;25.320;2024-03-02T04:01:59;19.08;;;7.45;;
73487;SDS011;61721;42.206;25.320;2024-03-02T04:04:29;17.90;;;9.23;;
73487;SDS011;61721;42.206;25.320;2024-03-02T04:06:56;19.65;;;8.88;;
73487;SDS011;61721;42.206;25.320;2024-03-02T04:09:24;18.83;;;8.68;;
73487;SDS011;61721;42.206;25.320;2024-03-02T04:11:51;18.83;;;9.00;;
73487;SDS011;61721;42.206;25.320;2024-03-02T04:14:19;18.25;;;8.45;;
73487;SDS011;61721;42.206;25.320;2024-03-02T04:16:46;23.15;;;9.50;;
73487;SDS011;61721;42.206;25.320;2024-03-02T04:19:14;21.13;;;9.45;;
73487;SDS011;61721;42.206;25.320;2024-03-02T04:21:42;20.83;;;9.90;;
73487;SDS011;61721;42.206;25.320;2024-03-02T04:24:10;21.52;;;8.95;;
73487;SDS011;61721;42.206;25.320;2024-03-02T04:26:37;18.90;;;8.73;;
73487;SDS011;61721;42.206;25.320;2024-03-02T04:29:04;18.88;;;9.10;;
73487;SDS011;61721;42.206;25.320;2024-03-02T04:31:32;19.75;;;8.98;;
73487;SDS011;61721;42.206;25.320;2024-03-02T04:33:59;26.02;;;9.25;;
73487;SDS011;61721;42.206;25.320;2024-03-02T04:36:27;22.63;;;9.25;;
73487;SDS011;61721;42.206;25.320;2024-03-02T04:38:56;25.50;;;9.45;;
73487;SDS011;61721;42.206;25.320;2024-03-02T04:41:24;20.98;;;8.95;;
73487;SDS011;61721;42.206;25.320;2024-03-02T04:43:51;21.95;;;9.45;;
73487;SDS011;61721;42.206;25.320;2024-03-02T04:46:21;23.38;;;10.65;;
73487;SDS011;61721;42.206;25.320;2024-03-02T04:48:50;18.80;;;8.98;;
73487;SDS011;61721;42.206;25.320;2024-03-02T04:51:20;23.05;;;9.38;;
73487;SDS011;61721;42.206;25.320;2024-03-02T04:53:48;18.58;;;9.43;;
73487;SDS011;61721;42.206;25.320;2024-03-02T04:56:17;21.02;;;9.02;;
73487;SDS011;61721;42.206;25.320;2024-03-02T04:59:05;21.85;;;9.85;;
73487;SDS011;61721;42.206;25.320;2024-03-02T05:01:33;22.38;;;9.68;;
73487;SDS011;61721;42.206;25.320;2024-03-02T05:04:00;22.42;;;9.98;;
73487;SDS011;61721;42.206;25.320;2024-03-02T05:06:28;23.25;;;9.32;;
73487;SDS011;61721;42.206;25.320;2024-03-02T05:08:55;22.50;;;9.50;;
73487;SDS011;61721;42.206;25.320;2024-03-02T05:11:24;16.58;;;8.02;;
73487;SDS011;61721;42.206;25.320;2024-03-02T05:14:09;18.27;;;8.15;;
73487;SDS011;61721;42.206;25.320;2024-03-02T05:16:37;21.58;;;8.65;;
73487;SDS011;61721;42.206;25.320;2024-03-02T05:19:05;23.63;;;9.02;;
73487;SDS011;61721;42.206;25.320;2024-03-02T05:21:33;23.77;;;9.85;;
73487;SDS011;61721;42.206;25.320;2024-03-02T05:24:00;22.50;;;9.40;;
73487;SDS011;61721;42.206;25.320;2024-03-02T05:26:29;24.35;;;8.95;;
73487;SDS011;61721;42.206;25.320;2024-03-02T05:28:57;20.85;;;9.48;;
73487;SDS011;61721;42.206;25.320;2024-03-02T05:31:24;20.13;;;8.77;;
73487;SDS011;61721;42.206;25.320;2024-03-02T05:33:51;23.67;;;9.15;;
73487;SDS011;61721;42.206;25.320;2024-03-02T05:36:19;28.10;;;9.45;;
73487;SDS011;61721;42.206;25.320;2024-03-02T05:38:47;21.17;;;9.38;;
73487;SDS011;61721;42.206;25.320;2024-03-02T05:41:14;24.33;;;9.73;;
73487;SDS011;61721;42.206;25.320;2024-03-02T05:43:43;22.65;;;9.30;;
73487;SDS011;61721;42.206;25.320;2024-03-02T05:46:11;24.25;;;9.82;;
73487;SDS011;61721;42.206;25.320;2024-03-02T05:48:38;21.60;;;8.88;;
73487;SDS011;61721;42.206;25.320;2024-03-02T05:51:05;21.95;;;8.65;;
73487;SDS011;61721;42.206;25.320;2024-03-02T05:53:33;21.55;;;9.52;;
73487;SDS011;61721;42.206;25.320;2024-03-02T05:58:30;19.70;;;8.80;;
73487;SDS011;61721;42.206;25.320;2024-03-02T06:01:13;20.92;;;9.38;;
73487;SDS011;61721;42.206;25.320;2024-03-02T06:03:40;22.55;;;10.55;;
73487;SDS011;61721;42.206;25.320;2024-03-02T06:06:08;18.52;;;9.35;;
73487;SDS011;61721;42.206;25.320;2024-03-02T06:08:35;23.13;;;8.90;;
73487;SDS011;61721;42.206;25.320;2024-03-02T06:11:03;22.55;;;8.05;;
73487;SDS011;61721;42.206;25.320;2024-03-02T06:13:30;16.63;;;7.72;;
73487;SDS011;61721;42.206;25.320;2024-03-02T06:15:57;21.67;;;8.65;;
73487;SDS011;61721;42.206;25.320;2024-03-02T06:18:26;25.23;;;9.48;;
73487;SDS011;61721;42.206;25.320;2024-03-02T06:20:54;18.70;;;7.82;;
73487;SDS011;61721;42.206;25.320;2024-03-02T06:23:21;19.08;;;8.48;;
73487;SDS011;61721;42.206;25.320;2024-03-02T06:25:50;23.55;;;9.05;;
73487;SDS011;61721;42.206;25.320;2024-03-02T06:28:17;20.05;;;8.90;;
73487;SDS011;61721;42.206;25.320;2024-03-02T06:30:44;17.83;;;8.30;;
73487;SDS011;61721;42.206;25.320;2024-03-02T06:33:12;22.13;;;9.05;;
73487;SDS011;61721;42.206;25.320;2024-03-02T06:35:40;22.80;;;9.18;;
73487;SDS011;61721;42.206;25.320;2024-03-02T06:38:08;22.38;;;8.80;;
73487;SDS011;61721;42.206;25.320;2024-03-02T06:40:35;18.95;;;9.05;;
73487;SDS011;61721;42.206;25.320;2024-03-02T06:43:05;24.58;;;8.75;;
73487;SDS011;61721;42.206;25.320;2024-03-02T06:45:32;21.55;;;8.75;;
73487;SDS011;61721;42.206;25.320;2024-03-02T06:48:00;24.13;;;9.23;;
73487;SDS011;61721;42.206;25.320;2024-03-02T06:50:27;19.67;;;8.93;;
73487;SDS011;61721;42.206;25.320;2024-03-02T06:52:56;22.10;;;8.48;;
73487;SDS011;61721;42.206;25.320;2024-03-02T06:55:24;23.65;;;10.00;;
73487;SDS011;61721;42.206;25.320;2024-03-02T06:57:51;22.38;;;9.57;;
73487;SDS011;61721;42.206;25.320;2024-03-02T07:00:19;19.98;;;9.00;;
73487;SDS011;61721;42.206;25.320;2024-03-02T07:02:46;20.42;;;8.32;;
73487;SDS011;61721;42.206;25.320;2024-03-02T07:05:14;19.50;;;9.43;;
73487;SDS011;61721;42.206;25.320;2024-03-02T07:07:41;16.10;;;7.93;;
73487;SDS011;61721;42.206;25.320;2024-03-02T07:10:11;20.77;;;9.27;;
73487;SDS011;61721;42.206;25.320;2024-03-02T07:12:41;17.77;;;8.25;;
73487;SDS011;61721;42.206;25.320;2024-03-02T07:15:10;16.77;;;8.48;;
73487;SDS011;61721;42.206;25.320;2024-03-02T07:17:47;19.90;;;8.35;;
73487;SDS011;61721;42.206;25.320;2024-03-02T07:20:14;23.52;;;9.00;;
73487;SDS011;61721;42.206;25.320;2024-03-02T07:22:41;21.33;;;8.90;;
73487;SDS011;61721;42.206;25.320;2024-03-02T07:25:09;19.88;;;8.10;;
73487;SDS011;61721;42.206;25.320;2024-03-02T07:27:38;20.88;;;8.15;;
73487;SDS011;61721;42.206;25.320;2024-03-02T07:30:05;20.83;;;8.98;;
73487;SDS011;61721;42.206;25.320;2024-03-02T07:32:33;24.15;;;9.35;;
73487;SDS011;61721;42.206;25.320;2024-03-02T07:35:01;22.33;;;9.25;;
73487;SDS011;61721;42.206;25.320;2024-03-02T07:37:29;23.42;;;8.85;;
73487;SDS011;61721;42.206;25.320;2024-03-02T07:39:56;24.10;;;8.27;;
73487;SDS011;61721;42.206;25.320;2024-03-02T07:42:26;24.00;;;9.45;;
73487;SDS011;61721;42.206;25.320;2024-03-02T07:44:53;16.88;;;7.95;;
73487;SDS011;61721;42.206;25.320;2024-03-02T07:47:20;27.58;;;9.95;;
73487;SDS011;61721;42.206;25.320;2024-03-02T07:49:48;18.70;;;9.05;;
73487;SDS011;61721;42.206;25.320;2024-03-02T07:52:15;19.80;;;8.95;;
73487;SDS011;61721;42.206;25.320;2024-03-02T07:54:42;20.20;;;9.15;;
73487;SDS011;61721;42.206;25.320;2024-03-02T07:57:10;15.95;;;7.82;;
73487;SDS011;61721;42.206;25.320;2024-03-02T07:59:39;16.40;;;7.82;;
73487;SDS011;61721;42.206;25.320;2024-03-02T08:02:06;18.00;;;8.02;;
73487;SDS011;61721;42.206;25.320;2024-03-02T08:04:34;19.92;;;9.32;;
73487;SDS011;61721;42.206;25.320;2024-03-02T08:07:02;16.92;;;8.25;;
73487;SDS011;61721;42.206;25.320;2024-03-02T08:09:30;15.20;;;7.82;;
73487;SDS011;61721;42.206;25.320;2024-03-02T08:11:58;19.38;;;8.65;;
73487;SDS011;61721;42.206;25.320;2024-03-02T08:14:25;19.50;;;9.02;;
73487;SDS011;61721;42.206;25.320;2024-03-02T08:16:54;21.33;;;8.80;;
73487;SDS011;61721;42.206;25.320;2024-03-02T08:19:22;22.90;;;8.77;;
73487;SDS011;61721;42.206;25.320;2024-03-02T08:21:50;18.08;;;8.82;;
73487;SDS011;61721;42.206;25.320;2024-03-02T08:24:17;19.55;;;9.10;;
73487;SDS011;61721;42.206;25.320;2024-03-02T08:26:48;19.35;;;9.27;;
73487;SDS011;61721;42.206;25.320;2024-03-02T08:29:15;18.95;;;10.13;;
73487;SDS011;61721;42.206;25.320;2024-03-02T08:31:43;20.40;;;10.05;;
73487;SDS011;61721;42.206;25.320;2024-03-02T08:34:12;22.77;;;9.80;;
73487;SDS011;61721;42.206;25.320;2024-03-02T08:36:39;17.80;;;8.93;;
73487;SDS011;61721;42.206;25.320;2024-03-02T08:39:07;20.10;;;8.77;;
73487;SDS011;61721;42.206;25.320;2024-03-02T08:41:40;20.73;;;8.73;;
73487;SDS011;61721;42.206;25.320;2024-03-02T08:44:08;18.35;;;8.57;;
73487;SDS011;61721;42.206;25.320;2024-03-02T08:46:36;20.70;;;8.95;;
73487;SDS011;61721;42.206;25.320;2024-03-02T08:49:04;17.15;;;8.52;;
73487;SDS011;61721;42.206;25.320;2024-03-02T08:51:33;19.30;;;8.65;;
73487;SDS011;61721;42.206;25.320;2024-03-02T08:54:00;19.45;;;8.70;;
73487;SDS011;61721;42.206;25.320;2024-03-02T08:56:29;19.23;;;9.15;;
73487;SDS011;61721;42.206;25.320;2024-03-02T08:58:57;19.55;;;9.52;;
73487;SDS011;61721;42.206;25.320;2024-03-02T09:01:24;20.85;;;8.63;;
73487;SDS011;61721;42.206;25.320;2024-03-02T09:03:52;19.55;;;9.18;;
73487;SDS011;61721;42.206;25.320;2024-03-02T09:06:19;17.50;;;9.23;;
73487;SDS011;61721;42.206;25.320;2024-03-02T09:08:48;19.25;;;8.25;;
73487;SDS011;61721;42.206;25.320;2024-03-02T09:11:17;19.88;;;9.85;;
73487;SDS011;61721;42.206;25.320;2024-03-02T09:13:44;16.77;;;9.05;;
73487;SDS011;61721;42.206;25.320;2024-03-02T09:16:12;22.60;;;9.30;;
73487;SDS011;61721;42.206;25.320;2024-03-02T09:18:39;24.38;;;10.20;;
73487;SDS011;61721;42.206;25.320;2024-03-02T09:21:07;19.90;;;9.32;;
73487;SDS011;61721;42.206;25.320;2024-03-02T09:23:34;19.40;;;9.80;;
73487;SDS011;61721;42.206;25.320;2024-03-02T09:26:03;21.38;;;9.93;;
73487;SDS011;61721;42.206;25.320;2024-03-02T09:28:31;19.55;;;10.27;;
73487;SDS011;61721;42.206;25.320;2024-03-02T09:30:58;22.48;;;9.27;;
73487;SDS011;61721;42.206;25.320;2024-03-02T09:33:27;19.92;;;9.73;;
73487;SDS011;61721;42.206;25.320;2024-03-02T09:35:55;19.80;;;9.15;;
73487;SDS011;61721;42.206;25.320;2024-03-02T09:38:22;22.50;;;10.05;;
73487;SDS011;61721;42.206;25.320;2024-03-02T09:40:49;27.35;;;10.80;;
73487;SDS011;61721;42.206;25.320;2024-03-02T09:43:19;22.40;;;10.73;;
73487;SDS011;61721;42.206;25.320;2024-03-02T09:45:46;25.85;;;11.45;;
73487;SDS011;61721;42.206;25.320;2024-03-02T09:48:14;20.77;;;9.60;;
73487;SDS011;61721;42.206;25.320;2024-03-02T09:50:43;19.40;;;10.20;;
73487;SDS011;61721;42.206;25.320;2024-03-02T09:53:11;24.88;;;10.70;;
73487;SDS011;61721;42.206;25.320;2024-03-02T09:55:40;28.15;;;12.02;;
73487;SDS011;61721;42.206;25.320;2024-03-02T09:58:09;27.38;;;12.30;;
73487;SDS011;61721;42.206;25.320;2024-03-02T10:00:38;21.05;;;10.68;;
73487;SDS011;61721;42.206;25.320;2024-03-02T10:03:05;22.15;;;10.20;;
73487;SDS011;61721;42.206;25.320;2024-03-02T10:05:38;21.88;;;10.30;;
73487;SDS011;61721;42.206;25.320;2024-03-02T10:08:06;20.35;;;10.32;;
73487;SDS011;61721;42.206;25.320;2024-03-02T10:10:36;25.27;;;11.80;;
73487;SDS011;61721;42.206;25.320;2024-03-02T10:13:07;26.08;;;12.32;;
73487;SDS011;61721;42.206;25.320;2024-03-02T10:15:36;23.23;;;12.30;;
73487;SDS011;61721;42.206;25.320;2024-03-02T10:18:08;20.67;;;11.38;;
73487;SDS011;61721;42.206;25.320;2024-03-02T10:20:37;27.90;;;12.13;;
73487;SDS011;61721;42.206;25.320;2024-03-02T10:23:11;26.65;;;11.90;;
73487;SDS011;61721;42.206;25.320;2024-03-02T10:25:40;22.40;;;10.77;;
73487;SDS011;61721;42.206;25.320;2024-03-02T10:28:07;21.00;;;11.55;;
73487;SDS011;61721;42.206;25.320;2024-03-02T10:30:35;24.00;;;12.20;;
73487;SDS011;61721;42.206;25.320;2024-03-02T10:33:05;25.98;;;13.05;;
73487;SDS011;61721;42.206;25.320;2024-03-02T10:35:33;23.98;;;12.35;;
73487;SDS011;61721;42.206;25.320;2024-03-02T10:38:03;23.85;;;13.02;;
73487;SDS011;61721;42.206;25.320;2024-03-02T10:40:32;26.15;;;12.57;;
73487;SDS011;61721;42.206;25.320;2024-03-02T10:43:00;23.48;;;13.65;;
73487;SDS011;61721;42.206;25.320;2024-03-02T10:45:31;29.02;;;13.65;;
73487;SDS011;61721;42.206;25.320;2024-03-02T10:47:58;28.58;;;14.57;;
73487;SDS011;61721;42.206;25.320;2024-03-02T10:50:29;28.83;;;13.35;;
73487;SDS011;61721;42.206;25.320;2024-03-02T10:52:57;27.20;;;13.18;;
73487;SDS011;61721;42.206;25.320;2024-03-02T10:55:24;32.10;;;17.55;;
73487;SDS011;61721;42.206;25.320;2024-03-02T10:57:52;28.50;;;15.05;;
73487;SDS011;61721;42.206;25.320;2024-03-02T11:02:56;22.45;;;11.55;;
73487;SDS011;61721;42.206;25.320;2024-03-02T11:05:26;26.73;;;13.13;;
73487;SDS011;61721;42.206;25.320;2024-03-02T11:08:00;23.60;;;12.40;;
73487;SDS011;61721;42.206;25.320;2024-03-02T11:10:30;21.52;;;12.18;;
73487;SDS011;61721;42.206;25.320;2024-03-02T11:13:03;27.77;;;13.82;;
73487;SDS011;61721;42.206;25.320;2024-03-02T11:15:35;23.50;;;12.98;;
73487;SDS011;61721;42.206;25.320;2024-03-02T11:18:03;28.30;;;13.20;;
73487;SDS011;61721;42.206;25.320;2024-03-02T11:20:34;29.80;;;14.23;;
73487;SDS011;61721;42.206;25.320;2024-03-02T11:23:07;24.67;;;12.85;;
73487;SDS011;61721;42.206;25.320;2024-03-02T11:25:35;24.80;;;13.07;;
73487;SDS011;61721;42.206;25.320;2024-03-02T11:28:05;28.20;;;13.60;;
73487;SDS011;61721;42.206;25.320;2024-03-02T11:30:50;23.02;;;12.35;;
73487;SDS011;61721;42.206;25.320;2024-03-02T11:33:24;31.02;;;14.43;;
73487;SDS011;61721;42.206;25.320;2024-03-02T11:35:56;23.70;;;11.00;;
73487;SDS011;61721;42.206;25.320;2024-03-02T11:38:29;28.67;;;14.77;;
73487;SDS011;61721;42.206;25.320;2024-03-02T11:40:58;42.22;;;16.25;;
73487;SDS011;61721;42.206;25.320;2024-03-02T11:43:27;34.88;;;14.38;;
73487;SDS011;61721;42.206;25.320;2024-03-02T11:45:58;32.88;;;15.10;;
73487;SDS011;61721;42.206;25.320;2024-03-02T11:48:29;27.38;;;12.25;;
73487;SDS011;61721;42.206;25.320;2024-03-02T11:50:57;32.75;;;15.25;;
73487;SDS011;61721;42.206;25.320;2024-03-02T11:53:26;27.42;;;13.65;;
73487;SDS011;61721;42.206;25.320;2024-03-02T11:55:56;26.27;;;13.43;;
73487;SDS011;61721;42.206;25.320;2024-03-02T11:58:26;22.92;;;11.68;;
73487;SDS011;61721;42.206;25.320;2024-03-02T12:00:54;23.35;;;11.18;;
73487;SDS011;61721;42.206;25.320;2024-03-02T12:03:23;24.70;;;11.95;;
73487;SDS011;61721;42.206;25.320;2024-03-02T12:05:53;25.20;;;12.10;;
73487;SDS011;61721;42.206;25.320;2024-03-02T12:08:21;25.73;;;11.70;;
73487;SDS011;61721;42.206;25.320;2024-03-02T12:10:57;19.75;;;11.70;;
73487;SDS011;61721;42.206;25.320;2024-03-02T12:13:25;26.40;;;12.18;;
73487;SDS011;61721;42.206;25.320;2024-03-02T12:15:53;22.88;;;12.57;;
73487;SDS011;61721;42.206;25.320;2024-03-02T12:18:22;23.83;;;11.50;;
73487;SDS011;61721;42.206;25.320;2024-03-02T12:20:50;26.58;;;13.18;;
73487;SDS011;61721;42.206;25.320;2024-03-02T12:23:21;20.58;;;12.20;;
73487;SDS011;61721;42.206;25.320;2024-03-02T12:25:49;25.25;;;12.40;;
73487;SDS011;61721;42.206;25.320;2024-03-02T12:28:19;24.27;;;13.52;;
73487;SDS011;61721;42.206;25.320;2024-03-02T12:30:47;28.90;;;13.00;;
73487;SDS011;61721;42.206;25.320;2024-03-02T12:33:15;23.27;;;12.07;;
73487;SDS011;61721;42.206;25.320;2024-03-02T12:35:44;26.70;;;13.02;;
73487;SDS011;61721;42.206;25.320;2024-03-02T12:38:11;24.45;;;12.30;;
73487;SDS011;61721;42.206;25.320;2024-03-02T12:40:39;20.38;;;11.75;;
73487;SDS011;61721;42.206;25.320;2024-03-02T12:43:06;23.75;;;12.10;;
73487;SDS011;61721;42.206;25.320;2024-03-02T12:45:35;23.60;;;11.85;;
73487;SDS011;61721;42.206;25.320;2024-03-02T12:48:04;21.88;;;11.90;;
73487;SDS011;61721;42.206;25.320;2024-03-02T12:50:33;28.20;;;12.77;;
73487;SDS011;61721;42.206;25.320;2024-03-02T12:53:00;25.20;;;12.85;;
73487;SDS011;61721;42.206;25.320;2024-03-02T12:55:28;22.95;;;12.25;;
73487;SDS011;61721;42.206;25.320;2024-03-02T12:57:56;23.77;;;12.63;;
73487;SDS011;61721;42.206;25.320;2024-03-02T13:00:24;27.70;;;13.95;;
73487;SDS011;61721;42.206;25.320;2024-03-02T13:02:53;27.42;;;14.05;;
73487;SDS011;61721;42.206;25.320;2024-03-02T13:05:29;22.58;;;11.27;;
73487;SDS011;61721;42.206;25.320;2024-03-02T13:07:57;29.40;;;13.95;;
73487;SDS011;61721;42.206;25.320;2024-03-02T13:10:34;31.38;;;14.95;;
73487;SDS011;61721;42.206;25.320;2024-03-02T13:13:02;24.25;;;13.18;;
73487;SDS011;61721;42.206;25.320;2024-03-02T13:15:29;26.58;;;15.02;;
73487;SDS011;61721;42.206;25.320;2024-03-02T13:18:01;30.40;;;16.73;;
73487;SDS011;61721;42.206;25.320;2024-03-02T13:20:30;26.38;;;14.63;;
73487;SDS011;61721;42.206;25.320;2024-03-02T13:23:04;31.75;;;16.65;;
73487;SDS011;61721;42.206;25.320;2024-03-02T13:25:32;34.22;;;17.92;;
73487;SDS011;61721;42.206;25.320;2024-03-02T13:27:59;35.00;;;18.13;;
73487;SDS011;61721;42.206;25.320;2024-03-02T13:30:27;27.33;;;14.50;;
73487;SDS011;61721;42.206;25.320;2024-03-02T13:32:55;26.73;;;13.95;;
73487;SDS011;61721;42.206;25.320;2024-03-02T13:35:24;21.60;;;13.05;;
73487;SDS011;61721;42.206;25.320;2024-03-02T13:37:51;27.05;;;13.45;;
73487;SDS011;61721;42.206;25.320;2024-03-02T13:40:21;29.35;;;16.00;;
73487;SDS011;61721;42.206;25.320;2024-03-02T13:42:49;26.20;;;13.73;;
73487;SDS011;61721;42.206;25.320;2024-03-02T13:45:23;25.88;;;13.65;;
73487;SDS011;61721;42.206;25.320;2024-03-02T13:47:50;24.67;;;13.70;;
73487;SDS011;61721;42.206;25.320;2024-03-02T13:50:18;31.02;;;14.02;;
73487;SDS011;61721;42.206;25.320;2024-03-02T13:52:47;29.30;;;13.60;;
73487;SDS011;61721;42.206;25.320;2024-03-02T13:55:14;24.17;;;14.02;;
73487;SDS011;61721;42.206;25.320;2024-03-02T13:57:42;29.30;;;13.45;;
73487;SDS011;61721;42.206;25.320;2024-03-02T14:00:10;26.52;;;12.45;;
73487;SDS011;61721;42.206;25.320;2024-03-02T14:02:38;24.90;;;12.38;;
73487;SDS011;61721;42.206;25.320;2024-03-02T14:05:05;25.70;;;13.95;;
73487;SDS011;61721;42.206;25.320;2024-03-02T14:07:37;26.50;;;12.75;;
73487;SDS011;61721;42.206;25.320;2024-03-02T14:10:06;24.42;;;12.30;;
73487;SDS011;61721;42.206;25.320;2024-03-02T14:12:34;26.15;;;13.52;;
73487;SDS011;61721;42.206;25.320;2024-03-02T14:15:01;24.35;;;13.48;;
73487;SDS011;61721;42.206;25.320;2024-03-02T14:17:29;24.83;;;13.25;;
73487;SDS011;61721;42.206;25.320;2024-03-02T14:19:57;23.50;;;12.25;;
73487;SDS011;61721;42.206;25.320;2024-03-02T14:22:31;26.88;;;13.90;;
73487;SDS011;61721;42.206;25.320;2024-03-02T14:24:59;22.73;;;12.23;;
73487;SDS011;61721;42.206;25.320;2024-03-02T14:27:28;21.98;;;12.27;;
73487;SDS011;61721;42.206;25.320;2024-03-02T14:29:56;22.27;;;12.93;;
73487;SDS011;61721;42.206;25.320;2024-03-02T14:32:23;26.27;;;12.13;;
73487;SDS011;61721;42.206;25.320;2024-03-02T14:34:51;21.98;;;12.20;;
73487;SDS011;61721;42.206;25.320;2024-03-02T14:37:18;28.00;;;13.07;;